ACA837 EDDM-CYYZ
Flight info
| Callsign | ACA837 |
|---|---|
| Flight time | N/A |
| Altitude | 34000 |
| Route | GIVMI6Q/08L GIVMI Y101 INBED DCT REKDI DCT LOHRE DCT ADKUV DCT LENDO DCT SOGRI DCT DENUT L610 KOPUL Q60 OKSAW DCT TEWXI DCT VATRY DCT SUTEX DCT RIKUL DCT DOGAL/M083F360 DCT 54N020W 53N030W 52N040W 51N050W DCT ALLRY/N0464F360 DCT QUBIS/N0477F380 DCT LETAK IMEBA9 |
| Aircraft | B77W/H-SDE1E2E3FGHIJ2J3J4J5M1RWXY/LB1D1 |
Departure
| Time | 2026-04-30 19:51 |
|---|---|
| Airport | Munich Airport (EDDM) |
Arrival
| Time | N/A |
|---|---|
| Airport | Toronto Pearson International Airport (CYYZ) |
| Time | Latitude | Longitude | Altitude | Speed | Heading |
|---|---|---|---|---|---|
| 2026-04-30 19:07 | 48.35319 | 11.78303 | 1481 ft | 0 kts | 83° |
| 2026-04-30 19:34 | 48.35319 | 11.78302 | 1480 ft | 2 kts | 83° |
| 2026-04-30 19:34 | 48.35317 | 11.78264 | 1490 ft | 4 kts | 83° |
| 2026-04-30 19:34 | 48.35310 | 11.78207 | 1475 ft | 4 kts | 63° |
| 2026-04-30 19:35 | 48.35294 | 11.78178 | 1485 ft | 4 kts | 22° |
| 2026-04-30 19:35 | 48.35270 | 11.78174 | 1475 ft | 4 kts | 353° |
| 2026-04-30 19:35 | 48.35245 | 11.78179 | 1481 ft | 2 kts | 353° |
| 2026-04-30 19:35 | 48.35244 | 11.78179 | 1490 ft | 0 kts | 353° |
| 2026-04-30 19:41 | 48.35245 | 11.78179 | 1490 ft | 1 kts | 353° |
| 2026-04-30 19:41 | 48.35263 | 11.78176 | 1476 ft | 3 kts | 353° |
| 2026-04-30 19:42 | 48.35282 | 11.78172 | 1479 ft | 3 kts | 353° |
| 2026-04-30 19:42 | 48.35308 | 11.78168 | 1490 ft | 5 kts | 353° |
| 2026-04-30 19:42 | 48.35340 | 11.78137 | 1490 ft | 7 kts | 307° |
| 2026-04-30 19:42 | 48.35351 | 11.78063 | 1477 ft | 8 kts | 264° |
| 2026-04-30 19:43 | 48.35343 | 11.77966 | 1477 ft | 11 kts | 263° |
| 2026-04-30 19:43 | 48.35335 | 11.77850 | 1485 ft | 11 kts | 270° |
| 2026-04-30 19:43 | 48.35388 | 11.77778 | 1476 ft | 11 kts | 347° |
| 2026-04-30 19:44 | 48.35543 | 11.77749 | 1487 ft | 11 kts | 353° |
| 2026-04-30 19:44 | 48.35621 | 11.77736 | 1484 ft | 11 kts | 353° |
| 2026-04-30 19:44 | 48.35699 | 11.77723 | 1477 ft | 11 kts | 353° |
| 2026-04-30 19:44 | 48.35777 | 11.77709 | 1490 ft | 11 kts | 353° |
| 2026-04-30 19:45 | 48.35855 | 11.77695 | 1483 ft | 11 kts | 353° |
| 2026-04-30 19:45 | 48.35921 | 11.77683 | 1476 ft | 8 kts | 353° |
| 2026-04-30 19:45 | 48.35961 | 11.77631 | 1483 ft | 8 kts | 288° |
| 2026-04-30 19:45 | 48.35957 | 11.77544 | 1490 ft | 8 kts | 263° |
| 2026-04-30 19:46 | 48.35951 | 11.77457 | 1484 ft | 8 kts | 263° |
| 2026-04-30 19:46 | 48.35944 | 11.77371 | 1478 ft | 8 kts | 263° |
| 2026-04-30 19:46 | 48.35937 | 11.77281 | 1484 ft | 9 kts | 263° |
| 2026-04-30 19:46 | 48.35928 | 11.77171 | 1479 ft | 12 kts | 263° |
| 2026-04-30 19:47 | 48.35918 | 11.77038 | 1490 ft | 14 kts | 263° |
| 2026-04-30 19:47 | 48.35910 | 11.76939 | 1490 ft | 15 kts | 263° |
| 2026-04-30 19:47 | 48.35903 | 11.76769 | 1478 ft | 10 kts | 282° |
| 2026-04-30 19:47 | 48.35944 | 11.76686 | 1474 ft | 10 kts | 326° |
| 2026-04-30 19:48 | 48.36012 | 11.76656 | 1482 ft | 10 kts | 351° |
| 2026-04-30 19:48 | 48.36082 | 11.76647 | 1481 ft | 9 kts | 359° |
| 2026-04-30 19:48 | 48.36120 | 11.76656 | 1482 ft | 0 kts | 16° |
| 2026-04-30 19:49 | 48.36168 | 11.76693 | 1477 ft | 17 kts | 33° |
| 2026-04-30 19:49 | 48.36285 | 11.76886 | 1490 ft | 11 kts | 83° |
| 2026-04-30 19:49 | 48.36299 | 11.77061 | 1490 ft | 38 kts | 83° |
| 2026-04-30 19:50 | 48.36356 | 11.77801 | 1481 ft | 102 kts | 83° |
| 2026-04-30 19:50 | 48.36460 | 11.79151 | 1487 ft | 156 kts | 83° |
| 2026-04-30 19:50 | 48.36598 | 11.80958 | 1508 ft | 193 kts | 83° |
| 2026-04-30 19:50 | 48.36758 | 11.82969 | 1906 ft | 194 kts | 82° |
| 2026-04-30 19:51 | 48.36957 | 11.84986 | 2403 ft | 194 kts | 76° |
| 2026-04-30 19:51 | 48.37630 | 11.86703 | 2719 ft | 197 kts | 33° |
| 2026-04-30 19:51 | 48.38940 | 11.87163 | 2994 ft | 201 kts | 352° |
| 2026-04-30 19:51 | 48.40345 | 11.86818 | 3183 ft | 211 kts | 355° |
| 2026-04-30 19:52 | 48.41848 | 11.86476 | 3311 ft | 228 kts | 343° |
| 2026-04-30 19:52 | 48.43178 | 11.85051 | 3460 ft | 248 kts | 308° |
| 2026-04-30 19:52 | 48.44165 | 11.82836 | 3673 ft | 261 kts | 307° |
| 2026-04-30 19:52 | 48.45285 | 11.80640 | 4148 ft | 268 kts | 310° |
| 2026-04-30 19:53 | 48.46480 | 11.78460 | 4770 ft | 271 kts | 311° |
| 2026-04-30 19:53 | 48.47697 | 11.76279 | 5400 ft | 273 kts | 311° |
| 2026-04-30 19:53 | 48.48928 | 11.74080 | 6050 ft | 276 kts | 312° |
| 2026-04-30 19:53 | 48.50174 | 11.71859 | 6690 ft | 278 kts | 312° |
| 2026-04-30 19:54 | 48.51419 | 11.69653 | 7310 ft | 281 kts | 312° |
| 2026-04-30 19:54 | 48.52709 | 11.67377 | 7930 ft | 283 kts | 311° |
| 2026-04-30 19:54 | 48.53977 | 11.65142 | 8515 ft | 285 kts | 311° |
| 2026-04-30 19:54 | 48.55270 | 11.62850 | 9081 ft | 288 kts | 311° |
| 2026-04-30 19:55 | 48.56574 | 11.60539 | 9647 ft | 290 kts | 311° |
| 2026-04-30 19:55 | 48.57891 | 11.58214 | 10220 ft | 292 kts | 312° |
| 2026-04-30 19:55 | 48.59222 | 11.55868 | 10711 ft | 298 kts | 312° |
| 2026-04-30 19:55 | 48.60610 | 11.53415 | 10879 ft | 318 kts | 312° |
| 2026-04-30 19:56 | 48.62085 | 11.50795 | 11063 ft | 337 kts | 311° |
| 2026-04-30 19:56 | 48.63637 | 11.48032 | 11220 ft | 357 kts | 311° |
| 2026-04-30 19:56 | 48.65280 | 11.45106 | 11552 ft | 371 kts | 311° |
| 2026-04-30 19:56 | 48.66947 | 11.42135 | 12122 ft | 379 kts | 311° |
| 2026-04-30 19:57 | 48.68667 | 11.39068 | 12897 ft | 382 kts | 312° |
| 2026-04-30 19:57 | 48.70413 | 11.36050 | 13619 ft | 381 kts | 317° |
| 2026-04-30 19:57 | 48.72496 | 11.33545 | 14110 ft | 386 kts | 329° |
| 2026-04-30 19:57 | 48.74801 | 11.31422 | 14800 ft | 389 kts | 331° |
| 2026-04-30 19:58 | 48.77135 | 11.29302 | 15552 ft | 392 kts | 330° |
| 2026-04-30 19:58 | 48.79440 | 11.27058 | 16296 ft | 396 kts | 328° |
| 2026-04-30 19:58 | 48.81742 | 11.24731 | 16988 ft | 399 kts | 328° |
| 2026-04-30 19:58 | 48.84108 | 11.22497 | 17645 ft | 401 kts | 334° |
| 2026-04-30 19:59 | 48.86647 | 11.20712 | 18263 ft | 404 kts | 342° |
| 2026-04-30 19:59 | 48.89323 | 11.19390 | 18915 ft | 405 kts | 345° |
| 2026-04-30 19:59 | 48.94392 | 11.15586 | 19928 ft | 420 kts | 324° |
| 2026-04-30 20:00 | 48.96582 | 11.12639 | 20543 ft | 423 kts | 318° |
| 2026-04-30 20:00 | 48.98685 | 11.09475 | 21062 ft | 427 kts | 319° |
| 2026-04-30 20:00 | 49.00838 | 11.06335 | 21621 ft | 431 kts | 319° |
| 2026-04-30 20:00 | 49.03025 | 11.03180 | 22180 ft | 434 kts | 319° |
| 2026-04-30 20:01 | 49.07435 | 10.96819 | 23252 ft | 440 kts | 319° |
| 2026-04-30 20:01 | 49.09665 | 10.93595 | 23757 ft | 443 kts | 319° |
| 2026-04-30 20:01 | 49.11881 | 10.90381 | 24213 ft | 447 kts | 319° |
| 2026-04-30 20:02 | 49.16410 | 10.83787 | 25172 ft | 453 kts | 319° |
| 2026-04-30 20:02 | 49.18697 | 10.80450 | 25606 ft | 456 kts | 319° |
| 2026-04-30 20:03 | 49.23310 | 10.73704 | 26447 ft | 462 kts | 319° |
| 2026-04-30 20:03 | 49.25639 | 10.70297 | 26844 ft | 465 kts | 319° |
| 2026-04-30 20:03 | 49.27980 | 10.66870 | 27241 ft | 468 kts | 319° |
| 2026-04-30 20:03 | 49.30303 | 10.63466 | 27626 ft | 470 kts | 319° |
| 2026-04-30 20:04 | 49.32667 | 10.59990 | 28015 ft | 472 kts | 319° |
| 2026-04-30 20:04 | 49.35040 | 10.56492 | 28363 ft | 475 kts | 319° |
| 2026-04-30 20:04 | 49.37427 | 10.52971 | 28686 ft | 477 kts | 319° |
| 2026-04-30 20:05 | 49.42236 | 10.45861 | 29302 ft | 482 kts | 319° |
| 2026-04-30 20:05 | 49.44655 | 10.42283 | 29652 ft | 483 kts | 319° |
| 2026-04-30 20:05 | 49.49473 | 10.35143 | 30551 ft | 479 kts | 319° |
| 2026-04-30 20:06 | 49.51835 | 10.31630 | 30964 ft | 478 kts | 319° |
| 2026-04-30 20:06 | 49.54218 | 10.28074 | 31362 ft | 476 kts | 319° |
| 2026-04-30 20:06 | 49.56592 | 10.24530 | 31744 ft | 475 kts | 319° |
| 2026-04-30 20:06 | 49.58962 | 10.20988 | 32133 ft | 474 kts | 319° |
| 2026-04-30 20:07 | 49.61331 | 10.17445 | 32316 ft | 477 kts | 319° |
| 2026-04-30 20:07 | 49.63718 | 10.13876 | 32338 ft | 478 kts | 319° |
| 2026-04-30 20:08 | 49.70807 | 10.03222 | 32367 ft | 471 kts | 319° |
| 2026-04-30 20:08 | 49.75473 | 9.96193 | 32374 ft | 472 kts | 319° |
| 2026-04-30 20:09 | 49.80176 | 9.89092 | 32351 ft | 473 kts | 319° |
| 2026-04-30 20:09 | 49.87232 | 9.78381 | 32353 ft | 474 kts | 319° |
| 2026-04-30 20:10 | 49.94259 | 9.67671 | 32367 ft | 474 kts | 319° |
| 2026-04-30 20:11 | 50.01308 | 9.56888 | 32366 ft | 474 kts | 318° |
| 2026-04-30 20:11 | 50.05694 | 9.49268 | 32367 ft | 477 kts | 305° |
| 2026-04-30 20:12 | 50.08409 | 9.39808 | 32352 ft | 484 kts | 287° |
| 2026-04-30 20:12 | 50.09219 | 9.34784 | 32373 ft | 485 kts | 287° |
| 2026-04-30 20:13 | 50.10924 | 9.24638 | 32370 ft | 486 kts | 287° |
| 2026-04-30 20:13 | 50.12698 | 9.14468 | 32366 ft | 486 kts | 287° |
| 2026-04-30 20:14 | 50.14471 | 9.04298 | 32348 ft | 487 kts | 287° |
| 2026-04-30 20:14 | 50.16243 | 8.94115 | 32356 ft | 486 kts | 287° |
| 2026-04-30 20:15 | 50.17984 | 8.83995 | 32351 ft | 486 kts | 287° |
| 2026-04-30 20:15 | 50.19727 | 8.73821 | 32356 ft | 485 kts | 287° |
| 2026-04-30 20:16 | 50.21458 | 8.63646 | 32346 ft | 485 kts | 287° |
| 2026-04-30 20:16 | 50.23177 | 8.53477 | 32357 ft | 484 kts | 287° |
| 2026-04-30 20:17 | 50.24891 | 8.43296 | 32368 ft | 485 kts | 286° |
| 2026-04-30 20:17 | 50.26581 | 8.33176 | 32352 ft | 485 kts | 286° |
| 2026-04-30 20:18 | 50.28276 | 8.22975 | 32369 ft | 485 kts | 286° |
| 2026-04-30 20:18 | 50.29961 | 8.12766 | 32356 ft | 485 kts | 286° |
| 2026-04-30 20:19 | 50.31641 | 8.02541 | 32369 ft | 485 kts | 286° |
| 2026-04-30 20:19 | 50.33313 | 7.92305 | 32347 ft | 485 kts | 286° |
| 2026-04-30 20:20 | 50.34973 | 7.82068 | 32367 ft | 485 kts | 285° |
| 2026-04-30 20:20 | 50.36611 | 7.71898 | 32352 ft | 485 kts | 285° |
| 2026-04-30 20:21 | 50.38255 | 7.61639 | 32353 ft | 485 kts | 285° |
| 2026-04-30 20:21 | 50.39888 | 7.51384 | 32348 ft | 485 kts | 285° |
| 2026-04-30 20:22 | 50.41512 | 7.41123 | 32344 ft | 485 kts | 285° |
| 2026-04-30 20:22 | 50.43126 | 7.30858 | 32338 ft | 485 kts | 285° |
| 2026-04-30 20:23 | 50.44723 | 7.20656 | 32333 ft | 484 kts | 285° |
| 2026-04-30 20:23 | 50.46315 | 7.10385 | 32333 ft | 484 kts | 285° |
| 2026-04-30 20:24 | 50.47899 | 7.00112 | 32328 ft | 484 kts | 284° |
| 2026-04-30 20:24 | 50.49478 | 6.89828 | 32319 ft | 485 kts | 284° |
| 2026-04-30 20:25 | 50.52171 | 6.74643 | 32319 ft | 483 kts | 291° |
| 2026-04-30 20:26 | 50.55561 | 6.59753 | 32323 ft | 482 kts | 290° |
| 2026-04-30 20:26 | 50.58843 | 6.44769 | 32314 ft | 483 kts | 290° |
| 2026-04-30 20:27 | 50.63099 | 6.24723 | 32311 ft | 485 kts | 286° |
| 2026-04-30 20:28 | 50.66153 | 6.04035 | 32312 ft | 485 kts | 283° |
| 2026-04-30 20:30 | 50.69956 | 5.78235 | 32304 ft | 484 kts | 284° |
| 2026-04-30 20:31 | 50.74508 | 5.47151 | 32294 ft | 484 kts | 283° |
| 2026-04-30 20:32 | 50.78221 | 5.21298 | 32297 ft | 484 kts | 283° |
| 2026-04-30 20:33 | 50.80541 | 5.05783 | 32289 ft | 484 kts | 288° |
| 2026-04-30 20:34 | 50.84766 | 4.91358 | 32295 ft | 483 kts | 297° |
| 2026-04-30 20:35 | 50.89283 | 4.77184 | 32295 ft | 483 kts | 297° |
| 2026-04-30 20:35 | 50.93763 | 4.62864 | 32295 ft | 484 kts | 297° |
| 2026-04-30 20:36 | 50.96752 | 4.53297 | 32296 ft | 484 kts | 297° |
| 2026-04-30 20:37 | 51.01233 | 4.38925 | 32293 ft | 484 kts | 296° |
| 2026-04-30 20:37 | 51.04185 | 4.29394 | 32294 ft | 484 kts | 296° |
| 2026-04-30 20:38 | 51.07149 | 4.19790 | 32296 ft | 484 kts | 296° |
| 2026-04-30 20:38 | 51.10106 | 4.10177 | 32294 ft | 484 kts | 296° |
| 2026-04-30 20:39 | 51.14533 | 3.95729 | 32283 ft | 484 kts | 296° |
| 2026-04-30 20:40 | 51.18911 | 3.81309 | 32288 ft | 484 kts | 296° |
| 2026-04-30 20:40 | 51.21841 | 3.71635 | 32285 ft | 484 kts | 296° |
| 2026-04-30 20:41 | 51.24243 | 3.61619 | 32283 ft | 484 kts | 284° |
| 2026-04-30 20:41 | 51.24920 | 3.56357 | 32291 ft | 484 kts | 279° |
| 2026-04-30 20:41 | 51.26200 | 3.45882 | 32286 ft | 484 kts | 282° |
| 2026-04-30 20:42 | 51.27602 | 3.35350 | 32277 ft | 485 kts | 282° |
| 2026-04-30 20:43 | 51.29654 | 3.19523 | 32276 ft | 486 kts | 281° |
| 2026-04-30 20:43 | 51.31004 | 3.08949 | 32266 ft | 486 kts | 281° |
| 2026-04-30 20:44 | 51.33022 | 2.93155 | 32269 ft | 485 kts | 281° |
| 2026-04-30 20:45 | 51.35675 | 2.71987 | 32265 ft | 485 kts | 281° |
| 2026-04-30 20:45 | 51.36977 | 2.61393 | 32266 ft | 485 kts | 281° |
| 2026-04-30 20:46 | 51.39528 | 2.40275 | 32257 ft | 485 kts | 280° |
| 2026-04-30 20:47 | 51.41439 | 2.24363 | 32251 ft | 485 kts | 280° |
| 2026-04-30 20:48 | 51.43370 | 2.08508 | 32247 ft | 486 kts | 281° |
| 2026-04-30 20:48 | 51.44658 | 1.97881 | 32240 ft | 486 kts | 280° |
| 2026-04-30 20:49 | 51.45920 | 1.87247 | 32238 ft | 486 kts | 280° |
| 2026-04-30 20:50 | 51.47755 | 1.71278 | 32228 ft | 485 kts | 279° |
| 2026-04-30 20:50 | 51.48957 | 1.60708 | 32228 ft | 485 kts | 279° |
| 2026-04-30 20:51 | 51.50160 | 1.50064 | 32233 ft | 485 kts | 279° |
| 2026-04-30 20:51 | 51.51951 | 1.34083 | 32219 ft | 485 kts | 279° |
| 2026-04-30 20:52 | 51.53134 | 1.23413 | 32209 ft | 485 kts | 279° |
| 2026-04-30 20:53 | 51.54658 | 1.07424 | 32208 ft | 485 kts | 275° |
| 2026-04-30 20:53 | 51.55313 | 0.96665 | 32218 ft | 485 kts | 275° |
| 2026-04-30 20:54 | 51.56312 | 0.80482 | 32210 ft | 486 kts | 275° |
| 2026-04-30 20:55 | 51.57315 | 0.64267 | 32214 ft | 486 kts | 274° |
| 2026-04-30 20:55 | 51.57964 | 0.53522 | 32213 ft | 487 kts | 274° |
| 2026-04-30 20:56 | 51.58931 | 0.37287 | 32214 ft | 485 kts | 274° |
| 2026-04-30 20:57 | 51.59866 | 0.21077 | 32222 ft | 485 kts | 274° |
| 2026-04-30 20:57 | 51.60475 | 0.10339 | 32216 ft | 485 kts | 274° |
| 2026-04-30 20:58 | 51.61377 | -0.05862 | 32215 ft | 484 kts | 274° |
| 2026-04-30 20:58 | 51.61977 | -0.16640 | 32216 ft | 483 kts | 274° |
| 2026-04-30 20:59 | 51.62972 | -0.32719 | 32218 ft | 482 kts | 274° |
| 2026-04-30 21:00 | 51.64254 | -0.54096 | 32220 ft | 481 kts | 274° |
| 2026-04-30 21:01 | 51.65187 | -0.70209 | 32212 ft | 482 kts | 274° |
| 2026-04-30 21:02 | 51.66099 | -0.86342 | 32193 ft | 483 kts | 274° |
| 2026-04-30 21:02 | 51.66690 | -0.97037 | 32183 ft | 483 kts | 274° |
| 2026-04-30 21:03 | 51.67278 | -1.07818 | 32182 ft | 483 kts | 273° |
| 2026-04-30 21:03 | 51.67856 | -1.18598 | 32182 ft | 483 kts | 273° |
| 2026-04-30 21:04 | 51.68423 | -1.29388 | 32186 ft | 483 kts | 273° |
| 2026-04-30 21:04 | 51.69254 | -1.45571 | 32186 ft | 483 kts | 273° |
| 2026-04-30 21:05 | 51.69799 | -1.56300 | 32184 ft | 484 kts | 273° |
| 2026-04-30 21:05 | 51.70644 | -1.67060 | 32176 ft | 486 kts | 282° |
| 2026-04-30 21:06 | 51.72958 | -1.77302 | 32177 ft | 489 kts | 296° |
| 2026-04-30 21:06 | 51.76116 | -1.87045 | 32326 ft | 493 kts | 295° |
| 2026-04-30 21:07 | 51.77651 | -1.91988 | 32646 ft | 492 kts | 295° |
| 2026-04-30 21:07 | 51.79170 | -1.96930 | 33015 ft | 490 kts | 295° |
| 2026-04-30 21:07 | 51.80662 | -2.01788 | 33395 ft | 487 kts | 294° |
| 2026-04-30 21:07 | 51.82055 | -2.06757 | 33747 ft | 485 kts | 291° |
| 2026-04-30 21:08 | 51.83283 | -2.11826 | 34048 ft | 484 kts | 289° |
| 2026-04-30 21:08 | 51.84432 | -2.16946 | 34090 ft | 486 kts | 288° |
| 2026-04-30 21:08 | 51.86694 | -2.27249 | 34149 ft | 485 kts | 288° |
| 2026-04-30 21:09 | 51.88970 | -2.37404 | 34158 ft | 482 kts | 288° |
| 2026-04-30 21:09 | 51.91284 | -2.47573 | 34156 ft | 481 kts | 289° |
| 2026-04-30 21:10 | 51.93598 | -2.57720 | 34166 ft | 480 kts | 289° |
| 2026-04-30 21:10 | 51.95899 | -2.67870 | 34175 ft | 480 kts | 289° |
| 2026-04-30 21:11 | 51.98189 | -2.78041 | 34179 ft | 480 kts | 289° |
| 2026-04-30 21:11 | 52.00453 | -2.88153 | 34172 ft | 481 kts | 289° |
| 2026-04-30 21:12 | 52.02736 | -2.98364 | 34167 ft | 481 kts | 288° |
| 2026-04-30 21:12 | 52.05004 | -3.08591 | 34167 ft | 481 kts | 288° |
| 2026-04-30 21:13 | 52.07268 | -3.18824 | 34168 ft | 481 kts | 288° |
| 2026-04-30 21:13 | 52.09500 | -3.28999 | 34162 ft | 481 kts | 288° |
| 2026-04-30 21:14 | 52.11734 | -3.39225 | 34166 ft | 479 kts | 288° |
| 2026-04-30 21:14 | 52.13960 | -3.49447 | 34143 ft | 478 kts | 288° |
| 2026-04-30 21:15 | 52.19891 | -3.76942 | 34133 ft | 476 kts | 288° |
| 2026-04-30 21:15 | 52.28462 | -4.17359 | 34122 ft | 473 kts | 287° |
| 2026-04-30 21:16 | 52.36916 | -4.58034 | 34125 ft | 472 kts | 287° |
| 2026-04-30 21:16 | 52.45252 | -4.98969 | 34112 ft | 475 kts | 287° |
| 2026-04-30 21:17 | 52.53474 | -5.40211 | 34118 ft | 477 kts | 286° |
| 2026-04-30 21:17 | 52.61542 | -5.81588 | 34116 ft | 479 kts | 286° |
| 2026-04-30 21:18 | 52.69540 | -6.23531 | 34115 ft | 481 kts | 285° |
| 2026-04-30 21:18 | 52.77416 | -6.65753 | 34099 ft | 482 kts | 285° |
| 2026-04-30 21:19 | 52.85037 | -7.08224 | 34099 ft | 482 kts | 283° |
| 2026-04-30 21:19 | 52.92213 | -7.50966 | 34087 ft | 482 kts | 283° |
| 2026-04-30 21:20 | 52.99213 | -7.93535 | 34093 ft | 482 kts | 283° |
| 2026-04-30 21:20 | 53.06116 | -8.36559 | 34098 ft | 482 kts | 283° |
| 2026-04-30 21:21 | 53.13491 | -8.79603 | 34081 ft | 484 kts | 283° |
| 2026-04-30 21:22 | 53.24259 | -9.44689 | 34081 ft | 486 kts | 282° |
| 2026-04-30 21:23 | 53.38074 | -10.32060 | 34086 ft | 489 kts | 282° |
| 2026-04-30 21:23 | 53.46990 | -10.91012 | 34084 ft | 491 kts | 281° |
| 2026-04-30 21:24 | 53.53514 | -11.35588 | 34081 ft | 492 kts | 281° |
| 2026-04-30 21:24 | 53.59893 | -11.80436 | 34083 ft | 493 kts | 280° |
| 2026-04-30 21:25 | 53.69164 | -12.48130 | 34091 ft | 494 kts | 280° |
| 2026-04-30 21:26 | 53.78021 | -13.15869 | 34080 ft | 495 kts | 280° |
| 2026-04-30 21:27 | 53.86540 | -13.84248 | 34081 ft | 494 kts | 280° |
| 2026-04-30 21:27 | 53.91995 | -14.29925 | 34081 ft | 494 kts | 279° |
| 2026-04-30 21:28 | 53.99797 | -14.98263 | 34078 ft | 493 kts | 278° |
| 2026-04-30 21:29 | 54.01208 | -15.67572 | 34064 ft | 487 kts | 271° |
| 2026-04-30 21:30 | 54.02396 | -16.81783 | 34074 ft | 483 kts | 270° |
| 2026-04-30 21:31 | 54.02505 | -17.95482 | 34054 ft | 479 kts | 270° |
| 2026-04-30 21:32 | 54.02082 | -18.60689 | 34065 ft | 479 kts | 270° |
| 2026-04-30 21:32 | 54.01583 | -19.05944 | 34060 ft | 478 kts | 269° |
| 2026-04-30 21:33 | 54.00519 | -19.73562 | 34030 ft | 476 kts | 269° |
| 2026-04-30 21:34 | 53.98971 | -20.18360 | 34023 ft | 475 kts | 265° |
| 2026-04-30 21:34 | 53.94868 | -20.85206 | 34000 ft | 476 kts | 265° |
| 2026-04-30 21:35 | 53.91951 | -21.29640 | 33974 ft | 478 kts | 265° |
| 2026-04-30 21:35 | 53.88830 | -21.74568 | 33967 ft | 481 kts | 265° |
| 2026-04-30 21:36 | 53.85526 | -22.19617 | 33971 ft | 483 kts | 265° |
| 2026-04-30 21:37 | 53.78407 | -23.09579 | 33959 ft | 484 kts | 264° |
| 2026-04-30 21:37 | 53.74588 | -23.54537 | 33968 ft | 482 kts | 264° |
| 2026-04-30 21:38 | 53.70615 | -23.99254 | 33983 ft | 481 kts | 264° |
| 2026-04-30 21:38 | 53.66483 | -24.43801 | 33962 ft | 480 kts | 264° |
| 2026-04-30 21:39 | 53.62220 | -24.87947 | 33954 ft | 480 kts | 263° |
| 2026-04-30 21:39 | 53.57761 | -25.32276 | 33947 ft | 480 kts | 263° |
| 2026-04-30 21:40 | 53.53142 | -25.76513 | 33918 ft | 480 kts | 262° |
| 2026-04-30 21:40 | 53.48364 | -26.20615 | 33896 ft | 479 kts | 262° |
| 2026-04-30 21:41 | 53.43472 | -26.64199 | 33893 ft | 478 kts | 262° |
| 2026-04-30 21:41 | 53.38394 | -27.07893 | 33906 ft | 477 kts | 261° |
| 2026-04-30 21:42 | 53.33163 | -27.51471 | 33918 ft | 478 kts | 261° |
| 2026-04-30 21:42 | 53.27759 | -27.95022 | 33909 ft | 478 kts | 261° |
| 2026-04-30 21:43 | 53.22198 | -28.38465 | 33900 ft | 478 kts | 260° |
| 2026-04-30 21:43 | 53.16520 | -28.81495 | 33905 ft | 478 kts | 259° |
| 2026-04-30 21:44 | 53.10650 | -29.24685 | 33908 ft | 478 kts | 259° |
| 2026-04-30 21:44 | 53.04618 | -29.67782 | 33908 ft | 479 kts | 258° |
| 2026-04-30 21:45 | 52.99311 | -30.10986 | 33907 ft | 476 kts | 267° |
| 2026-04-30 21:45 | 52.96793 | -30.54731 | 33912 ft | 476 kts | 266° |
| 2026-04-30 21:46 | 52.94065 | -30.98173 | 33919 ft | 477 kts | 265° |
| 2026-04-30 21:46 | 52.91161 | -31.41863 | 33920 ft | 477 kts | 265° |
| 2026-04-30 21:47 | 52.88097 | -31.85470 | 33990 ft | 476 kts | 264° |
| 2026-04-30 21:47 | 52.84903 | -32.28726 | 34007 ft | 477 kts | 264° |
| 2026-04-30 21:48 | 52.81511 | -32.72279 | 34012 ft | 478 kts | 264° |
| 2026-04-30 21:48 | 52.77966 | -33.15766 | 34014 ft | 477 kts | 263° |
| 2026-04-30 21:49 | 52.74264 | -33.59159 | 34006 ft | 477 kts | 263° |
| 2026-04-30 21:49 | 52.70406 | -34.02450 | 34013 ft | 477 kts | 262° |
| 2026-04-30 21:50 | 52.66414 | -34.45415 | 34026 ft | 478 kts | 262° |
| 2026-04-30 21:50 | 52.62237 | -34.88593 | 34029 ft | 478 kts | 261° |
| 2026-04-30 21:51 | 52.57902 | -35.31722 | 34029 ft | 478 kts | 261° |
| 2026-04-30 21:51 | 52.53409 | -35.74765 | 34047 ft | 478 kts | 261° |
| 2026-04-30 21:52 | 52.48780 | -36.17543 | 34070 ft | 479 kts | 260° |
| 2026-04-30 21:52 | 52.43958 | -36.60576 | 34085 ft | 480 kts | 259° |
| 2026-04-30 21:53 | 52.38974 | -37.03549 | 34084 ft | 480 kts | 259° |
| 2026-04-30 21:53 | 52.33842 | -37.46391 | 34088 ft | 479 kts | 259° |
| 2026-04-30 21:54 | 52.28591 | -37.88833 | 34100 ft | 480 kts | 258° |
| 2026-04-30 21:54 | 52.23148 | -38.31480 | 34111 ft | 480 kts | 258° |
| 2026-04-30 21:55 | 52.17541 | -38.74099 | 34117 ft | 481 kts | 258° |
| 2026-04-30 21:55 | 52.11787 | -39.16587 | 34107 ft | 480 kts | 257° |
| 2026-04-30 21:56 | 52.05877 | -39.58970 | 34105 ft | 480 kts | 257° |
| 2026-04-30 21:56 | 51.99923 | -40.00972 | 34119 ft | 481 kts | 260° |
| 2026-04-30 21:57 | 51.97443 | -40.44252 | 34123 ft | 483 kts | 264° |
| 2026-04-30 21:57 | 51.94766 | -40.87633 | 34132 ft | 484 kts | 264° |
| 2026-04-30 21:58 | 51.91927 | -41.31046 | 34131 ft | 485 kts | 263° |
| 2026-04-30 21:58 | 51.88957 | -41.74108 | 34145 ft | 484 kts | 263° |
| 2026-04-30 21:59 | 51.85809 | -42.17344 | 34141 ft | 483 kts | 263° |
| 2026-04-30 22:00 | 51.80799 | -42.81963 | 34155 ft | 482 kts | 262° |
| 2026-04-30 22:00 | 51.75446 | -43.46329 | 34171 ft | 482 kts | 262° |
| 2026-04-30 22:01 | 51.71707 | -43.88838 | 34168 ft | 481 kts | 261° |
| 2026-04-30 22:01 | 51.67799 | -44.31496 | 34172 ft | 481 kts | 261° |
| 2026-04-30 22:02 | 51.63736 | -44.74052 | 34181 ft | 480 kts | 261° |
| 2026-04-30 22:02 | 51.59783 | -45.13941 | 34192 ft | 480 kts | 260° |
| 2026-04-30 22:03 | 51.55459 | -45.56000 | 34199 ft | 480 kts | 260° |
| 2026-04-30 22:03 | 51.50958 | -45.98250 | 34217 ft | 479 kts | 259° |
| 2026-04-30 22:04 | 51.46315 | -46.40296 | 34233 ft | 478 kts | 259° |
| 2026-04-30 22:05 | 51.39111 | -47.02893 | 34239 ft | 478 kts | 259° |
| 2026-04-30 22:05 | 51.34098 | -47.44720 | 34247 ft | 478 kts | 258° |
| 2026-04-30 22:06 | 51.28941 | -47.86407 | 34247 ft | 478 kts | 258° |
| 2026-04-30 22:06 | 51.20949 | -48.48627 | 34257 ft | 476 kts | 258° |
| 2026-04-30 22:07 | 51.15483 | -48.89640 | 34256 ft | 476 kts | 257° |
| 2026-04-30 22:07 | 51.09848 | -49.30752 | 34266 ft | 475 kts | 257° |
| 2026-04-30 22:08 | 51.04072 | -49.71731 | 34270 ft | 475 kts | 257° |
| 2026-04-30 22:08 | 50.97162 | -50.12071 | 34247 ft | 474 kts | 248° |
| 2026-04-30 22:09 | 50.87725 | -50.50756 | 34267 ft | 473 kts | 248° |
| 2026-04-30 22:09 | 50.78167 | -50.89524 | 34276 ft | 473 kts | 248° |
| 2026-04-30 22:10 | 50.68490 | -51.28089 | 34273 ft | 472 kts | 247° |
| 2026-04-30 22:10 | 50.58708 | -51.66410 | 34285 ft | 471 kts | 247° |
| 2026-04-30 22:11 | 50.49333 | -52.04917 | 34266 ft | 473 kts | 259° |
| 2026-04-30 22:11 | 50.47180 | -52.25017 | 34292 ft | 473 kts | 259° |
| 2026-04-30 22:12 | 50.42475 | -52.65634 | 34263 ft | 473 kts | 259° |
| 2026-04-30 22:12 | 50.37639 | -53.06152 | 34277 ft | 472 kts | 258° |
| 2026-04-30 22:13 | 50.32685 | -53.46432 | 34277 ft | 470 kts | 258° |
| 2026-04-30 22:13 | 50.27602 | -53.86495 | 34271 ft | 469 kts | 257° |
| 2026-04-30 22:14 | 50.22432 | -54.26134 | 34278 ft | 468 kts | 257° |
| 2026-04-30 22:14 | 50.17092 | -54.65928 | 34277 ft | 468 kts | 257° |
| 2026-04-30 22:15 | 50.11625 | -55.05563 | 34270 ft | 467 kts | 257° |
| 2026-04-30 22:15 | 50.06029 | -55.45085 | 34267 ft | 467 kts | 256° |
| 2026-04-30 22:16 | 50.01112 | -55.78979 | 34258 ft | 467 kts | 256° |
| 2026-04-30 22:17 | 49.98210 | -55.98640 | 34256 ft | 467 kts | 256° |
| 2026-04-30 22:17 | 49.96011 | -56.13370 | 34259 ft | 467 kts | 256° |
| 2026-04-30 22:18 | 49.93803 | -56.28032 | 34256 ft | 467 kts | 256° |
| 2026-04-30 22:19 | 49.91569 | -56.42710 | 34257 ft | 468 kts | 256° |
| 2026-04-30 22:20 | 49.89309 | -56.57425 | 34259 ft | 467 kts | 256° |
| 2026-04-30 22:20 | 49.87048 | -56.72042 | 34256 ft | 467 kts | 255° |
| 2026-04-30 22:21 | 49.85524 | -56.81818 | 34259 ft | 467 kts | 255° |
| 2026-04-30 22:21 | 49.83989 | -56.91594 | 34255 ft | 467 kts | 255° |
| 2026-04-30 22:22 | 49.82443 | -57.01363 | 34258 ft | 467 kts | 255° |
| 2026-04-30 22:22 | 49.80894 | -57.11128 | 34255 ft | 467 kts | 255° |
| 2026-04-30 22:23 | 49.79347 | -57.20812 | 34257 ft | 466 kts | 255° |
| 2026-04-30 22:23 | 49.77779 | -57.30551 | 34247 ft | 466 kts | 255° |
| 2026-04-30 22:24 | 49.76208 | -57.40281 | 34251 ft | 466 kts | 254° |
| 2026-04-30 22:24 | 49.74629 | -57.49995 | 34243 ft | 466 kts | 254° |
| 2026-04-30 22:25 | 49.73040 | -57.59695 | 34251 ft | 465 kts | 254° |
| 2026-04-30 22:25 | 49.71454 | -57.69331 | 34253 ft | 466 kts | 254° |
| 2026-04-30 22:26 | 49.69048 | -57.83860 | 34249 ft | 465 kts | 254° |
| 2026-04-30 22:27 | 49.67437 | -57.93536 | 34249 ft | 465 kts | 254° |
| 2026-04-30 22:27 | 49.65007 | -58.07976 | 34252 ft | 466 kts | 253° |
| 2026-04-30 22:28 | 49.62551 | -58.22467 | 34251 ft | 465 kts | 253° |
| 2026-04-30 22:29 | 49.59250 | -58.41762 | 34253 ft | 465 kts | 253° |
| 2026-04-30 22:31 | 49.53405 | -58.75420 | 34243 ft | 467 kts | 253° |
| 2026-04-30 22:32 | 49.49161 | -58.99448 | 34243 ft | 467 kts | 253° |
| 2026-04-30 22:33 | 49.34218 | -59.81624 | 34219 ft | 467 kts | 252° |
| 2026-04-30 22:35 | 49.16055 | -60.76831 | 34193 ft | 467 kts | 251° |
| 2026-04-30 22:36 | 48.97075 | -61.71545 | 34190 ft | 467 kts | 250° |
| 2026-04-30 22:37 | 48.81383 | -62.46585 | 34159 ft | 467 kts | 250° |
| 2026-04-30 22:38 | 48.65142 | -63.21398 | 34121 ft | 467 kts | 250° |
| 2026-04-30 22:39 | 48.52744 | -63.76781 | 34105 ft | 465 kts | 250° |
| 2026-04-30 22:40 | 48.27175 | -64.86629 | 34087 ft | 463 kts | 250° |
| 2026-04-30 22:41 | 48.05185 | -65.76885 | 34026 ft | 461 kts | 249° |
| 2026-04-30 22:43 | 47.78055 | -66.83459 | 33985 ft | 458 kts | 248° |
| 2026-04-30 22:44 | 47.59436 | -67.53847 | 33916 ft | 460 kts | 246° |
| 2026-04-30 22:45 | 47.46695 | -68.08438 | 34868 ft | 469 kts | 251° |
| 2026-04-30 22:45 | 47.44780 | -68.17598 | 35427 ft | 470 kts | 251° |
| 2026-04-30 22:46 | 47.42835 | -68.26856 | 35843 ft | 471 kts | 251° |
| 2026-04-30 22:47 | 47.28130 | -68.95450 | 35916 ft | 487 kts | 250° |
| 2026-04-30 22:47 | 47.19776 | -69.33456 | 35812 ft | 480 kts | 249° |
| 2026-04-30 22:48 | 47.15364 | -69.53243 | 35854 ft | 470 kts | 251° |
| 2026-04-30 22:49 | 47.12263 | -69.67042 | 40809 ft | 480 kts | 247° |
| 2026-04-30 22:49 | 47.09124 | -69.80911 | 35817 ft | 476 kts | 249° |
| 2026-04-30 22:51 | 47.02837 | -70.08435 | 35810 ft | 475 kts | 249° |
| 2026-04-30 22:52 | 46.99657 | -70.22224 | 35808 ft | 477 kts | 249° |
| 2026-04-30 22:53 | 46.95389 | -70.40588 | 35804 ft | 479 kts | 248° |
| 2026-04-30 22:53 | 46.92154 | -70.54416 | 35803 ft | 479 kts | 248° |
| 2026-04-30 22:55 | 46.86723 | -70.77423 | 35793 ft | 478 kts | 248° |
| 2026-04-30 22:56 | 46.82371 | -70.95691 | 35796 ft | 477 kts | 248° |
| 2026-04-30 22:57 | 46.76898 | -71.18446 | 35800 ft | 477 kts | 248° |
| 2026-04-30 22:58 | 46.72473 | -71.36676 | 35798 ft | 477 kts | 248° |
| 2026-04-30 22:59 | 46.65823 | -71.63788 | 35798 ft | 477 kts | 248° |